sensor_id;sensor_type;location;lat;lon;timestamp;pressure;altitude;pressure_sealevel;temperature;humidity
16481;BME280;44634;54.110;12.138;2022-11-15T00:01:33;101736.38;;;7.01;100.00
16481;BME280;44634;54.110;12.138;2022-11-15T00:04:03;101730.69;;;7.09;100.00
16481;BME280;44634;54.110;12.138;2022-11-15T00:06:32;101724.84;;;7.18;100.00
16481;BME280;44634;54.110;12.138;2022-11-15T00:09:00;101719.06;;;7.27;100.00
16481;BME280;44634;54.110;12.138;2022-11-15T00:11:28;101721.91;;;7.08;100.00
16481;BME280;44634;54.110;12.138;2022-11-15T00:13:56;101718.75;;;7.18;100.00
16481;BME280;44634;54.110;12.138;2022-11-15T00:16:25;101712.66;;;7.31;100.00
16481;BME280;44634;54.110;12.138;2022-11-15T00:18:53;101704.22;;;7.40;100.00
16481;BME280;44634;54.110;12.138;2022-11-15T00:21:21;101694.44;;;7.28;100.00
16481;BME280;44634;54.110;12.138;2022-11-15T00:23:48;101685.06;;;7.38;100.00
16481;BME280;44634;54.110;12.138;2022-11-15T00:26:16;101692.44;;;7.03;100.00
16481;BME280;44634;54.110;12.138;2022-11-15T00:28:44;101687.44;;;6.99;100.00
16481;BME280;44634;54.110;12.138;2022-11-15T00:31:13;101683.22;;;6.96;100.00
16481;BME280;44634;54.110;12.138;2022-11-15T00:33:44;101690.69;;;6.88;100.00
16481;BME280;44634;54.110;12.138;2022-11-15T00:36:12;101695.66;;;6.78;100.00
16481;BME280;44634;54.110;12.138;2022-11-15T00:38:41;101689.19;;;6.84;100.00
16481;BME280;44634;54.110;12.138;2022-11-15T00:41:08;101690.63;;;7.04;100.00
16481;BME280;44634;54.110;12.138;2022-11-15T00:43:36;101690.28;;;6.96;100.00
16481;BME280;44634;54.110;12.138;2022-11-15T00:46:06;101683.88;;;7.00;100.00
16481;BME280;44634;54.110;12.138;2022-11-15T00:48:35;101685.88;;;7.10;100.00
16481;BME280;44634;54.110;12.138;2022-11-15T00:51:05;101670.13;;;7.39;100.00
16481;BME280;44634;54.110;12.138;2022-11-15T00:53:32;101663.81;;;7.27;100.00
16481;BME280;44634;54.110;12.138;2022-11-15T00:56:00;101671.50;;;7.02;100.00
16481;BME280;44634;54.110;12.138;2022-11-15T00:58:28;101680.47;;;6.83;100.00
16481;BME280;44634;54.110;12.138;2022-11-15T01:00:56;101679.16;;;6.61;100.00
16481;BME280;44634;54.110;12.138;2022-11-15T01:03:24;101681.25;;;7.00;100.00
16481;BME280;44634;54.110;12.138;2022-11-15T01:05:51;101672.63;;;6.98;100.00
16481;BME280;44634;54.110;12.138;2022-11-15T01:08:20;101679.53;;;6.84;100.00
16481;BME280;44634;54.110;12.138;2022-11-15T01:10:48;101679.34;;;6.88;100.00
16481;BME280;44634;54.110;12.138;2022-11-15T01:13:16;101671.94;;;6.80;100.00
16481;BME280;44634;54.110;12.138;2022-11-15T01:15:44;101671.00;;;6.65;100.00
16481;BME280;44634;54.110;12.138;2022-11-15T01:18:11;101675.41;;;6.80;100.00
16481;BME280;44634;54.110;12.138;2022-11-15T01:20:40;101678.94;;;6.79;100.00
16481;BME280;44634;54.110;12.138;2022-11-15T01:23:08;101679.06;;;6.62;100.00
16481;BME280;44634;54.110;12.138;2022-11-15T01:25:37;101681.81;;;6.61;100.00
16481;BME280;44634;54.110;12.138;2022-11-15T01:28:05;101671.88;;;6.66;100.00
16481;BME280;44634;54.110;12.138;2022-11-15T01:30:33;101680.56;;;6.52;100.00
16481;BME280;44634;54.110;12.138;2022-11-15T01:33:01;101675.41;;;6.80;100.00
16481;BME280;44634;54.110;12.138;2022-11-15T01:35:29;101668.50;;;6.78;100.00
16481;BME280;44634;54.110;12.138;2022-11-15T01:37:56;101672.00;;;6.78;100.00
16481;BME280;44634;54.110;12.138;2022-11-15T01:40:24;101665.97;;;6.76;100.00
16481;BME280;44634;54.110;12.138;2022-11-15T01:42:53;101670.19;;;6.79;100.00
16481;BME280;44634;54.110;12.138;2022-11-15T01:45:21;101655.59;;;6.89;100.00
16481;BME280;44634;54.110;12.138;2022-11-15T01:47:51;101651.69;;;6.96;100.00
16481;BME280;44634;54.110;12.138;2022-11-15T01:50:23;101648.75;;;7.01;100.00
16481;BME280;44634;54.110;12.138;2022-11-15T01:52:53;101631.00;;;7.04;100.00
16481;BME280;44634;54.110;12.138;2022-11-15T01:55:22;101632.25;;;7.13;100.00
16481;BME280;44634;54.110;12.138;2022-11-15T01:57:55;101627.72;;;6.86;100.00
16481;BME280;44634;54.110;12.138;2022-11-15T02:00:23;101627.81;;;6.85;100.00
16481;BME280;44634;54.110;12.138;2022-11-15T02:02:51;101622.75;;;6.96;100.00
16481;BME280;44634;54.110;12.138;2022-11-15T02:05:19;101620.66;;;6.73;100.00
16481;BME280;44634;54.110;12.138;2022-11-15T02:07:48;101634.47;;;6.91;100.00
16481;BME280;44634;54.110;12.138;2022-11-15T02:10:19;101633.22;;;6.68;100.00
16481;BME280;44634;54.110;12.138;2022-11-15T02:12:47;101647.16;;;6.54;100.00
16481;BME280;44634;54.110;12.138;2022-11-15T02:15:17;101632.78;;;6.90;100.00
16481;BME280;44634;54.110;12.138;2022-11-15T02:17:56;101646.28;;;6.69;100.00
16481;BME280;44634;54.110;12.138;2022-11-15T02:20:47;101641.88;;;6.84;100.00
16481;BME280;44634;54.110;12.138;2022-11-15T02:29:28;101638.03;;;6.90;100.00
16481;BME280;44634;54.110;12.138;2022-11-15T02:32:06;101631.00;;;6.90;100.00
16481;BME280;44634;54.110;12.138;2022-11-15T02:34:43;101627.63;;;6.88;100.00
16481;BME280;44634;54.110;12.138;2022-11-15T02:37:16;101627.63;;;6.88;100.00
16481;BME280;44634;54.110;12.138;2022-11-15T02:39:51;101630.28;;;6.58;100.00
16481;BME280;44634;54.110;12.138;2022-11-15T02:42:25;101629.91;;;6.64;100.00
16481;BME280;44634;54.110;12.138;2022-11-15T02:45:13;101621.56;;;6.57;100.00
16481;BME280;44634;54.110;12.138;2022-11-15T02:47:47;101629.53;;;6.56;100.00
16481;BME280;44634;54.110;12.138;2022-11-15T02:50:35;101620.56;;;6.44;100.00
16481;BME280;44634;54.110;12.138;2022-11-15T02:53:03;101622.63;;;6.69;100.00
16481;BME280;44634;54.110;12.138;2022-11-15T02:55:33;101619.78;;;6.72;100.00
16481;BME280;44634;54.110;12.138;2022-11-15T02:58:18;101615.81;;;6.51;100.00
16481;BME280;44634;54.110;12.138;2022-11-15T03:00:52;101620.00;;;6.39;100.00
16481;BME280;44634;54.110;12.138;2022-11-15T03:03:49;101628.97;;;6.65;100.00
16481;BME280;44634;54.110;12.138;2022-11-15T03:06:26;101626.56;;;6.76;100.00
16481;BME280;44634;54.110;12.138;2022-11-15T03:09:04;101616.06;;;6.46;100.00
16481;BME280;44634;54.110;12.138;2022-11-15T03:11:35;101606.00;;;6.69;100.00
16481;BME280;44634;54.110;12.138;2022-11-15T03:14:10;101611.50;;;6.64;100.00
16481;BME280;44634;54.110;12.138;2022-11-15T03:16:45;101613.06;;;6.38;100.00
16481;BME280;44634;54.110;12.138;2022-11-15T03:19:21;101618.06;;;6.57;100.00
16481;BME280;44634;54.110;12.138;2022-11-15T03:21:52;101610.47;;;6.52;100.00
16481;BME280;44634;54.110;12.138;2022-11-15T03:24:24;101607.31;;;6.76;100.00
16481;BME280;44634;54.110;12.138;2022-11-15T03:26:54;101606.38;;;6.33;100.00
16481;BME280;44634;54.110;12.138;2022-11-15T03:29:28;101618.13;;;6.41;100.00
16481;BME280;44634;54.110;12.138;2022-11-15T03:32:02;101613.34;;;6.48;100.00
16481;BME280;44634;54.110;12.138;2022-11-15T03:34:36;101610.72;;;6.48;100.00
16481;BME280;44634;54.110;12.138;2022-11-15T03:37:06;101620.03;;;6.53;100.00
16481;BME280;44634;54.110;12.138;2022-11-15T03:39:34;101619.34;;;6.20;100.00
16481;BME280;44634;54.110;12.138;2022-11-15T03:42:08;101612.84;;;6.11;100.00
16481;BME280;44634;54.110;12.138;2022-11-15T03:44:42;101632.75;;;6.15;100.00
16481;BME280;44634;54.110;12.138;2022-11-15T03:47:16;101647.66;;;6.15;100.00
16481;BME280;44634;54.110;12.138;2022-11-15T03:49:50;101642.59;;;5.96;100.00
16481;BME280;44634;54.110;12.138;2022-11-15T03:52:21;101642.59;;;6.12;100.00
16481;BME280;44634;54.110;12.138;2022-11-15T03:54:50;101648.94;;;6.08;100.00
16481;BME280;44634;54.110;12.138;2022-11-15T03:57:18;101655.19;;;6.05;100.00
16481;BME280;44634;54.110;12.138;2022-11-15T03:59:46;101664.06;;;6.18;100.00
16481;BME280;44634;54.110;12.138;2022-11-15T04:02:14;101648.66;;;6.28;100.00
16481;BME280;44634;54.110;12.138;2022-11-15T04:04:42;101653.41;;;6.06;100.00
16481;BME280;44634;54.110;12.138;2022-11-15T04:07:11;101645.53;;;6.06;100.00
16481;BME280;44634;54.110;12.138;2022-11-15T04:09:39;101652.06;;;6.14;100.00
16481;BME280;44634;54.110;12.138;2022-11-15T04:12:20;101638.66;;;6.19;100.00
16481;BME280;44634;54.110;12.138;2022-11-15T04:14:58;101650.94;;;6.18;100.00
16481;BME280;44634;54.110;12.138;2022-11-15T04:17:37;101647.94;;;6.10;100.00
16481;BME280;44634;54.110;12.138;2022-11-15T04:20:07;101645.13;;;5.97;100.00
16481;BME280;44634;54.110;12.138;2022-11-15T04:22:54;101641.75;;;6.11;100.00
16481;BME280;44634;54.110;12.138;2022-11-15T04:25:40;101645.88;;;6.15;100.00
16481;BME280;44634;54.110;12.138;2022-11-15T04:28:09;101645.03;;;6.15;100.00
16481;BME280;44634;54.110;12.138;2022-11-15T04:30:37;101645.22;;;6.12;100.00
16481;BME280;44634;54.110;12.138;2022-11-15T04:33:05;101646.50;;;6.35;100.00
16481;BME280;44634;54.110;12.138;2022-11-15T04:35:32;101643.59;;;6.25;100.00
16481;BME280;44634;54.110;12.138;2022-11-15T04:38:03;101648.22;;;6.20;100.00
16481;BME280;44634;54.110;12.138;2022-11-15T04:40:31;101636.38;;;6.29;100.00
16481;BME280;44634;54.110;12.138;2022-11-15T04:42:58;101638.66;;;6.19;100.00
16481;BME280;44634;54.110;12.138;2022-11-15T04:45:29;101628.53;;;6.43;100.00
16481;BME280;44634;54.110;12.138;2022-11-15T04:47:57;101635.06;;;6.51;100.00
16481;BME280;44634;54.110;12.138;2022-11-15T04:50:25;101627.78;;;6.11;100.00
16481;BME280;44634;54.110;12.138;2022-11-15T04:52:53;101632.06;;;6.28;100.00
16481;BME280;44634;54.110;12.138;2022-11-15T04:55:22;101640.53;;;5.85;100.00
16481;BME280;44634;54.110;12.138;2022-11-15T04:57:57;101643.00;;;6.04;100.00
16481;BME280;44634;54.110;12.138;2022-11-15T05:00:26;101646.63;;;6.17;100.00
16481;BME280;44634;54.110;12.138;2022-11-15T05:02:55;101644.69;;;6.05;100.00
16481;BME280;44634;54.110;12.138;2022-11-15T05:05:41;101650.28;;;6.15;100.00
16481;BME280;44634;54.110;12.138;2022-11-15T05:08:09;101650.88;;;6.04;100.00
16481;BME280;44634;54.110;12.138;2022-11-15T05:10:38;101652.81;;;6.16;100.00
16481;BME280;44634;54.110;12.138;2022-11-15T05:13:06;101660.50;;;5.88;100.00
16481;BME280;44634;54.110;12.138;2022-11-15T05:15:33;101660.50;;;5.88;100.00
16481;BME280;44634;54.110;12.138;2022-11-15T05:18:01;101656.88;;;6.06;100.00
16481;BME280;44634;54.110;12.138;2022-11-15T05:20:29;101665.94;;;6.16;100.00
16481;BME280;44634;54.110;12.138;2022-11-15T05:22:57;101664.00;;;6.04;100.00
16481;BME280;44634;54.110;12.138;2022-11-15T05:25:24;101660.19;;;6.25;100.00
16481;BME280;44634;54.110;12.138;2022-11-15T05:27:54;101664.19;;;6.01;100.00
16481;BME280;44634;54.110;12.138;2022-11-15T05:30:22;101661.63;;;6.15;100.00
16481;BME280;44634;54.110;12.138;2022-11-15T05:32:50;101667.16;;;6.11;100.00
16481;BME280;44634;54.110;12.138;2022-11-15T05:35:21;101660.28;;;5.92;100.00
16481;BME280;44634;54.110;12.138;2022-11-15T05:37:56;101666.97;;;6.14;100.00
16481;BME280;44634;54.110;12.138;2022-11-15T05:40:24;101660.69;;;6.16;100.00
16481;BME280;44634;54.110;12.138;2022-11-15T05:42:53;101663.44;;;5.99;100.00
16481;BME280;44634;54.110;12.138;2022-11-15T05:45:21;101666.53;;;6.06;100.00
16481;BME280;44634;54.110;12.138;2022-11-15T05:47:55;101676.44;;;5.85;100.00
16481;BME280;44634;54.110;12.138;2022-11-15T05:50:26;101674.56;;;5.87;100.00
16481;BME280;44634;54.110;12.138;2022-11-15T05:52:55;101676.44;;;5.85;100.00
16481;BME280;44634;54.110;12.138;2022-11-15T05:55:30;101683.28;;;5.87;100.00
16481;BME280;44634;54.110;12.138;2022-11-15T05:58:01;101698.72;;;6.25;100.00
16481;BME280;44634;54.110;12.138;2022-11-15T06:00:28;101682.56;;;6.01;100.00
16481;BME280;44634;54.110;12.138;2022-11-15T06:02:56;101696.44;;;6.03;100.00
16481;BME280;44634;54.110;12.138;2022-11-15T06:05:24;101697.88;;;5.93;100.00
16481;BME280;44634;54.110;12.138;2022-11-15T06:07:52;101697.34;;;5.86;100.00
16481;BME280;44634;54.110;12.138;2022-11-15T06:10:19;101693.94;;;5.68;100.00
16481;BME280;44634;54.110;12.138;2022-11-15T06:12:56;101702.50;;;5.88;100.00
16481;BME280;44634;54.110;12.138;2022-11-15T06:15:25;101701.06;;;5.82;100.00
16481;BME280;44634;54.110;12.138;2022-11-15T06:17:55;101697.81;;;5.94;100.00
16481;BME280;44634;54.110;12.138;2022-11-15T06:20:25;101707.38;;;5.78;100.00
16481;BME280;44634;54.110;12.138;2022-11-15T06:22:56;101703.53;;;5.85;100.00
16481;BME280;44634;54.110;12.138;2022-11-15T06:25:24;101717.47;;;5.70;100.00
16481;BME280;44634;54.110;12.138;2022-11-15T06:27:52;101722.91;;;5.83;100.00
16481;BME280;44634;54.110;12.138;2022-11-15T06:30:20;101723.63;;;6.02;100.00
16481;BME280;44634;54.110;12.138;2022-11-15T06:32:50;101730.56;;;6.03;100.00
16481;BME280;44634;54.110;12.138;2022-11-15T06:35:18;101729.81;;;6.01;100.00
16481;BME280;44634;54.110;12.138;2022-11-15T06:37:45;101727.53;;;5.95;100.00
16481;BME280;44634;54.110;12.138;2022-11-15T06:40:14;101725.66;;;5.97;100.00
16481;BME280;44634;54.110;12.138;2022-11-15T06:42:41;101725.97;;;5.91;100.00
16481;BME280;44634;54.110;12.138;2022-11-15T06:45:09;101729.53;;;5.90;100.00
16481;BME280;44634;54.110;12.138;2022-11-15T06:47:44;101739.13;;;6.38;100.00
16481;BME280;44634;54.110;12.138;2022-11-15T06:50:14;101737.88;;;6.14;100.00
16481;BME280;44634;54.110;12.138;2022-11-15T06:52:42;101737.44;;;6.53;100.00
16481;BME280;44634;54.110;12.138;2022-11-15T06:55:10;101734.81;;;6.37;100.00
16481;BME280;44634;54.110;12.138;2022-11-15T06:57:46;101734.63;;;6.56;100.00
16481;BME280;44634;54.110;12.138;2022-11-15T07:00:15;101734.91;;;6.81;100.00
16481;BME280;44634;54.110;12.138;2022-11-15T07:02:43;101728.69;;;6.52;100.00
16481;BME280;44634;54.110;12.138;2022-11-15T07:05:12;101729.81;;;6.17;100.00
16481;BME280;44634;54.110;12.138;2022-11-15T07:07:41;101720.81;;;6.52;100.00
16481;BME280;44634;54.110;12.138;2022-11-15T07:10:09;101722.06;;;6.61;100.00
16481;BME280;44634;54.110;12.138;2022-11-15T07:12:37;101726.91;;;6.53;100.00
16481;BME280;44634;54.110;12.138;2022-11-15T07:15:05;101720.47;;;6.59;100.00
16481;BME280;44634;54.110;12.138;2022-11-15T07:17:33;101728.06;;;6.93;100.00
16481;BME280;44634;54.110;12.138;2022-11-15T07:20:01;101713.69;;;6.84;100.00
16481;BME280;44634;54.110;12.138;2022-11-15T07:22:29;101723.59;;;6.95;100.00
16481;BME280;44634;54.110;12.138;2022-11-15T07:24:58;101711.28;;;7.40;100.00
16481;BME280;44634;54.110;12.138;2022-11-15T07:27:26;101711.28;;;7.54;100.00
16481;BME280;44634;54.110;12.138;2022-11-15T07:29:54;101700.03;;;7.08;100.00
16481;BME280;44634;54.110;12.138;2022-11-15T07:32:22;101696.13;;;7.29;100.00
16481;BME280;44634;54.110;12.138;2022-11-15T07:34:50;101686.66;;;7.41;100.00
16481;BME280;44634;54.110;12.138;2022-11-15T07:37:18;101689.63;;;7.35;100.00
16481;BME280;44634;54.110;12.138;2022-11-15T07:39:46;101688.22;;;7.15;100.00
16481;BME280;44634;54.110;12.138;2022-11-15T07:42:15;101699.06;;;7.53;100.00
16481;BME280;44634;54.110;12.138;2022-11-15T07:44:59;101688.97;;;7.74;100.00
16481;BME280;44634;54.110;12.138;2022-11-15T07:47:28;101678.75;;;7.41;100.00
16481;BME280;44634;54.110;12.138;2022-11-15T07:49:56;101689.00;;;7.31;100.00
16481;BME280;44634;54.110;12.138;2022-11-15T07:52:23;101695.75;;;7.35;100.00
16481;BME280;44634;54.110;12.138;2022-11-15T07:54:51;101704.34;;;6.95;100.00
16481;BME280;44634;54.110;12.138;2022-11-15T07:57:20;101715.06;;;7.06;100.00
16481;BME280;44634;54.110;12.138;2022-11-15T07:59:48;101717.38;;;7.40;100.00
16481;BME280;44634;54.110;12.138;2022-11-15T08:02:15;101712.69;;;7.60;100.00
16481;BME280;44634;54.110;12.138;2022-11-15T08:04:44;101713.81;;;7.70;100.00
16481;BME280;44634;54.110;12.138;2022-11-15T08:07:12;101707.75;;;7.96;100.00
16481;BME280;44634;54.110;12.138;2022-11-15T08:09:40;101695.28;;;7.86;100.00
16481;BME280;44634;54.110;12.138;2022-11-15T08:12:07;101684.94;;;7.83;100.00
16481;BME280;44634;54.110;12.138;2022-11-15T08:14:37;101690.38;;;7.65;100.00
16481;BME280;44634;54.110;12.138;2022-11-15T08:17:04;101701.31;;;7.59;100.00
16481;BME280;44634;54.110;12.138;2022-11-15T08:19:32;101709.38;;;7.42;100.00
16481;BME280;44634;54.110;12.138;2022-11-15T08:22:00;101710.59;;;7.51;100.00
16481;BME280;44634;54.110;12.138;2022-11-15T08:24:28;101706.97;;;7.53;100.00
16481;BME280;44634;54.110;12.138;2022-11-15T08:26:55;101704.50;;;7.50;100.00
16481;BME280;44634;54.110;12.138;2022-11-15T08:29:23;101704.22;;;7.40;100.00
16481;BME280;44634;54.110;12.138;2022-11-15T08:31:54;101705.19;;;7.95;100.00
16481;BME280;44634;54.110;12.138;2022-11-15T08:34:22;101697.06;;;7.71;100.00
16481;BME280;44634;54.110;12.138;2022-11-15T08:36:50;101688.13;;;7.88;100.00
16481;BME280;44634;54.110;12.138;2022-11-15T08:39:17;101683.72;;;8.15;100.00
16481;BME280;44634;54.110;12.138;2022-11-15T08:41:45;101678.47;;;8.15;100.00
16481;BME280;44634;54.110;12.138;2022-11-15T08:44:13;101680.44;;;8.12;100.00
16481;BME280;44634;54.110;12.138;2022-11-15T08:46:41;101688.00;;;8.03;100.00
16481;BME280;44634;54.110;12.138;2022-11-15T08:49:10;101685.25;;;8.46;100.00
16481;BME280;44634;54.110;12.138;2022-11-15T08:51:38;101671.06;;;7.93;100.00
16481;BME280;44634;54.110;12.138;2022-11-15T08:54:05;101677.63;;;8.15;100.00
16481;BME280;44634;54.110;12.138;2022-11-15T08:56:33;101669.63;;;8.16;100.00
16481;BME280;44634;54.110;12.138;2022-11-15T08:59:01;101662.03;;;8.24;100.00
16481;BME280;44634;54.110;12.138;2022-11-15T09:01:28;101657.13;;;8.05;100.00
16481;BME280;44634;54.110;12.138;2022-11-15T09:03:56;101649.44;;;8.29;100.00
16481;BME280;44634;54.110;12.138;2022-11-15T09:06:25;101642.66;;;8.40;100.00
16481;BME280;44634;54.110;12.138;2022-11-15T09:08:53;101670.16;;;8.48;100.00
16481;BME280;44634;54.110;12.138;2022-11-15T09:11:21;101673.09;;;8.96;100.00
16481;BME280;44634;54.110;12.138;2022-11-15T09:13:49;101666.25;;;8.41;100.00
16481;BME280;44634;54.110;12.138;2022-11-15T09:16:18;101673.06;;;8.58;100.00
16481;BME280;44634;54.110;12.138;2022-11-15T09:18:45;101657.25;;;8.58;100.00
16481;BME280;44634;54.110;12.138;2022-11-15T09:21:13;101670.97;;;8.76;100.00
16481;BME280;44634;54.110;12.138;2022-11-15T09:23:42;101667.88;;;8.29;100.00
16481;BME280;44634;54.110;12.138;2022-11-15T09:26:10;101673.16;;;8.29;100.00
16481;BME280;44634;54.110;12.138;2022-11-15T09:28:38;101680.31;;;8.27;100.00
16481;BME280;44634;54.110;12.138;2022-11-15T09:31:08;101677.38;;;8.59;100.00
16481;BME280;44634;54.110;12.138;2022-11-15T09:33:36;101668.72;;;8.30;100.00
16481;BME280;44634;54.110;12.138;2022-11-15T09:36:06;101677.28;;;8.60;100.00
16481;BME280;44634;54.110;12.138;2022-11-15T09:38:35;101659.19;;;8.94;100.00
16481;BME280;44634;54.110;12.138;2022-11-15T09:41:31;101660.41;;;8.63;100.00
16481;BME280;44634;54.110;12.138;2022-11-15T09:44:11;101649.00;;;8.62;100.00
16481;BME280;44634;54.110;12.138;2022-11-15T09:47:08;101640.16;;;8.63;100.00
16481;BME280;44634;54.110;12.138;2022-11-15T09:49:41;101628.69;;;8.90;100.00
16481;BME280;44634;54.110;12.138;2022-11-15T09:52:10;101622.84;;;8.47;100.00
16481;BME280;44634;54.110;12.138;2022-11-15T09:54:47;101614.97;;;8.59;100.00
16481;BME280;44634;54.110;12.138;2022-11-15T09:57:30;101612.25;;;8.34;100.00
16481;BME280;44634;54.110;12.138;2022-11-15T10:00:04;101626.00;;;8.52;100.00
16481;BME280;44634;54.110;12.138;2022-11-15T10:03:09;101617.31;;;8.89;100.00
16481;BME280;44634;54.110;12.138;2022-11-15T10:05:40;101606.25;;;8.97;100.00
16481;BME280;44634;54.110;12.138;2022-11-15T10:08:19;101592.91;;;9.24;100.00
16481;BME280;44634;54.110;12.138;2022-11-15T10:10:55;101579.28;;;9.30;100.00
16481;BME280;44634;54.110;12.138;2022-11-15T10:13:46;101557.66;;;9.25;100.00
16481;BME280;44634;54.110;12.138;2022-11-15T10:16:31;101551.94;;;9.31;100.00
16481;BME280;44634;54.110;12.138;2022-11-15T10:19:10;101545.31;;;9.62;100.00
16481;BME280;44634;54.110;12.138;2022-11-15T10:21:52;101536.56;;;9.86;100.00
16481;BME280;44634;54.110;12.138;2022-11-15T10:24:25;101528.19;;;9.31;100.00
16481;BME280;44634;54.110;12.138;2022-11-15T10:26:55;101519.16;;;9.94;100.00
16481;BME280;44634;54.110;12.138;2022-11-15T10:29:24;101498.56;;;9.75;100.00
16481;BME280;44634;54.110;12.138;2022-11-15T10:31:53;101483.34;;;10.14;100.00
16481;BME280;44634;54.110;12.138;2022-11-15T10:34:22;101471.44;;;9.73;100.00
16481;BME280;44634;54.110;12.138;2022-11-15T10:36:54;101470.63;;;9.84;100.00
16481;BME280;44634;54.110;12.138;2022-11-15T10:39:23;101470.34;;;9.76;100.00
16481;BME280;44634;54.110;12.138;2022-11-15T10:41:51;101462.19;;;10.14;100.00
16481;BME280;44634;54.110;12.138;2022-11-15T10:44:26;101453.53;;;10.01;100.00
16481;BME280;44634;54.110;12.138;2022-11-15T10:50:07;101436.06;;;10.67;100.00
16481;BME280;44634;54.110;12.138;2022-11-15T10:52:53;101356.38;;;11.88;100.00
16481;BME280;44634;54.110;12.138;2022-11-15T10:55:26;101290.19;;;11.56;100.00
16481;BME280;44634;54.110;12.138;2022-11-15T10:57:58;101306.09;;;11.15;100.00
16481;BME280;44634;54.110;12.138;2022-11-15T11:00:36;101318.16;;;10.53;100.00
16481;BME280;44634;54.110;12.138;2022-11-15T11:03:20;101340.66;;;10.59;100.00
16481;BME280;44634;54.110;12.138;2022-11-15T11:06:04;101361.69;;;10.38;100.00
16481;BME280;44634;54.110;12.138;2022-11-15T11:08:32;101371.66;;;10.46;100.00
16481;BME280;44634;54.110;12.138;2022-11-15T11:11:02;101361.09;;;10.57;100.00
16481;BME280;44634;54.110;12.138;2022-11-15T11:13:32;101360.69;;;10.72;100.00
16481;BME280;44634;54.110;12.138;2022-11-15T11:16:14;101346.13;;;10.89;100.00
16481;BME280;44634;54.110;12.138;2022-11-15T11:18:49;101307.59;;;11.28;100.00
16481;BME280;44634;54.110;12.138;2022-11-15T11:21:26;101291.66;;;10.87;100.00
16481;BME280;44634;54.110;12.138;2022-11-15T11:24:10;101273.97;;;11.71;100.00
16481;BME280;44634;54.110;12.138;2022-11-15T11:26:45;101231.44;;;11.93;100.00
16481;BME280;44634;54.110;12.138;2022-11-15T11:29:32;101215.19;;;11.77;100.00
16481;BME280;44634;54.110;12.138;2022-11-15T11:32:16;101208.00;;;11.37;100.00
16481;BME280;44634;54.110;12.138;2022-11-15T11:34:56;101233.84;;;11.45;100.00
16481;BME280;44634;54.110;12.138;2022-11-15T11:37:31;101250.38;;;11.16;100.00
16481;BME280;44634;54.110;12.138;2022-11-15T11:40:16;101278.06;;;11.54;100.00
16481;BME280;44634;54.110;12.138;2022-11-15T11:42:53;101265.03;;;11.41;100.00
16481;BME280;44634;54.110;12.138;2022-11-15T11:45:46;101256.41;;;11.70;100.00
16481;BME280;44634;54.110;12.138;2022-11-15T11:48:31;101239.94;;;11.87;100.00
16481;BME280;44634;54.110;12.138;2022-11-15T11:51:13;101221.59;;;11.44;100.00
16481;BME280;44634;54.110;12.138;2022-11-15T11:53:47;101230.72;;;11.60;100.00
16481;BME280;44634;54.110;12.138;2022-11-15T11:56:25;101232.28;;;11.42;100.00
16481;BME280;44634;54.110;12.138;2022-11-15T11:58:56;101232.13;;;11.65;100.00
16481;BME280;44634;54.110;12.138;2022-11-15T12:01:31;101227.03;;;11.73;100.00
16481;BME280;44634;54.110;12.138;2022-11-15T12:04:05;101232.53;;;11.60;100.00
16481;BME280;44634;54.110;12.138;2022-11-15T12:06:38;101233.81;;;11.86;100.00
16481;BME280;44634;54.110;12.138;2022-11-15T12:09:14;101223.06;;;11.88;100.00
16481;BME280;44634;54.110;12.138;2022-11-15T12:11:50;101236.03;;;11.91;100.00
16481;BME280;44634;54.110;12.138;2022-11-15T12:14:33;101222.31;;;11.55;100.00
16481;BME280;44634;54.110;12.138;2022-11-15T12:17:01;101219.91;;;12.04;100.00
16481;BME280;44634;54.110;12.138;2022-11-15T12:19:31;101221.91;;;11.09;100.00
16481;BME280;44634;54.110;12.138;2022-11-15T12:22:02;101264.69;;;11.14;100.00
16481;BME280;44634;54.110;12.138;2022-11-15T12:24:35;101269.09;;;11.24;100.00
16481;BME280;44634;54.110;12.138;2022-11-15T12:27:19;101269.16;;;11.34;100.00
16481;BME280;44634;54.110;12.138;2022-11-15T12:29:54;101256.09;;;11.42;100.00
16481;BME280;44634;54.110;12.138;2022-11-15T12:32:27;101237.66;;;11.82;100.00
16481;BME280;44634;54.110;12.138;2022-11-15T12:34:58;101253.66;;;11.50;100.00
16481;BME280;44634;54.110;12.138;2022-11-15T12:37:47;101253.94;;;11.78;100.00
16481;BME280;44634;54.110;12.138;2022-11-15T12:40:26;101239.03;;;11.77;100.00
16481;BME280;44634;54.110;12.138;2022-11-15T12:43:32;101229.06;;;11.39;100.00
16481;BME280;44634;54.110;12.138;2022-11-15T12:46:03;101243.97;;;11.40;100.00
16481;BME280;44634;54.110;12.138;2022-11-15T12:48:56;101211.69;;;11.76;100.00
16481;BME280;44634;54.110;12.138;2022-11-15T12:55:00;101197.16;;;11.71;100.00
16481;BME280;44634;54.110;12.138;2022-11-15T12:57:39;101163.44;;;12.23;100.00
16481;BME280;44634;54.110;12.138;2022-11-15T13:03:19;101150.28;;;11.92;100.00
16481;BME280;44634;54.110;12.138;2022-11-15T13:06:09;101135.84;;;12.44;100.00
16481;BME280;44634;54.110;12.138;2022-11-15T13:08:43;101116.56;;;12.04;100.00
16481;BME280;44634;54.110;12.138;2022-11-15T13:11:47;101082.31;;;12.78;100.00
16481;BME280;44634;54.110;12.138;2022-11-15T13:14:41;101080.59;;;12.87;100.00
16481;BME280;44634;54.110;12.138;2022-11-15T13:17:22;101046.53;;;12.92;100.00
16481;BME280;44634;54.110;12.138;2022-11-15T13:19:55;101039.53;;;12.34;100.00